FNMA

Details ICAO FNMA (MEG)
Name MALANJE
Region Angola
Timezone Africa/Luanda (UTC+1.0)
Plans Departing 4
Arriving 7
Stats Elevation 3,868 ft / 1,179 m (AMSL)
Location -9.525085° 16.312406°
Runways 1
Magnetic Variation 2.769° W
Sunrise 2017-12-17 04:31:54 UTC / 2017-12-17 05:31:54 Local
Sunset 2017-12-17 17:12:32 UTC / 2017-12-17 18:12:32 Local
Advertisement - Login to hide

Runways

ID Width Length Bearing (true) Bearing (mag) Surface Threshold Offset Overrun Length
13 98 ft / 30 m 7,247 ft / 2,209 m 123.40° 126.17° Asphalt 0 ft / 0 m 0 ft / 0 m
31 98 ft / 30 m 7,247 ft / 2,209 m 303.40° 306.17° Asphalt 0 ft / 0 m 0 ft / 0 m

Map

Weather


0- 5 10 15 20 25 30 35+ Temperature / ° C

Clouds and Precipitation
Forecast for 2017-12-17 12:00 UTC. Updated an hour ago

Ground ~20,000 ft ~40,000 ft Winds

METAR

FNMA 170800Z 09005KT 8000 OVC057 21/20 Q1017

TAF

TAF FNMA 162300Z 1700/1712 VRB03KT 6000 -RA FEW006 BKN012 TEMPO 1703/1707 22005KT 9000 BKN009

Frequencies

Tower 118.90 MHz AFIS
Warning: Do not use this data for real-world aviation or navigation. No guarantee of current accuracy is given.